Terminal Aerodrome Forecast
Issued by NWS

Home | Current Version | Previous Version | Text Only | Print | Product List | Glossary On
Versions: 1 2 3 4 5 6 7 8 9 10 11 12 13 14
000
FTUS44 KCRP 242328
TAFALI
TAF
KALI 242328Z 2500/2524 12015KT P6SM SCT040
     FM250100 12010KT P6SM FEW022
     FM250900 VRB03KT 4SM BR SCT022
     FM251400 13011KT P6SM SCT025 SCT035
     FM251800 12014KT P6SM VCSH BKN035
     FM252200 12014KT P6SM SCT030=

USA.gov is the U.S. government's official web portal to all federal, state and local government web resources and services.